createdAt,value
2019-02-10T00:00:03.294Z,996.91
2019-02-10T00:01:03.255Z,996.91
2019-02-10T00:02:03.266Z,996.89
2019-02-10T00:03:03.261Z,996.85
2019-02-10T00:04:03.222Z,996.83
2019-02-10T00:05:03.203Z,996.84
2019-02-10T00:06:03.178Z,996.84
2019-02-10T00:07:03.204Z,996.81
2019-02-10T00:08:03.222Z,996.80
2019-02-10T00:09:03.195Z,996.73
2019-02-10T00:10:03.164Z,996.72
2019-02-10T00:11:03.162Z,996.71
2019-02-10T00:12:03.129Z,996.71
2019-02-10T00:13:03.140Z,996.69
2019-02-10T00:14:03.145Z,996.69
2019-02-10T00:15:03.090Z,996.63
2019-02-10T00:16:03.073Z,996.62
2019-02-10T00:17:03.098Z,996.59
2019-02-10T00:18:03.080Z,996.61
2019-02-10T00:19:03.071Z,996.59
2019-02-10T00:20:03.066Z,996.57
2019-02-10T00:21:03.062Z,996.54
2019-02-10T00:22:03.039Z,996.51
2019-02-10T00:23:03.063Z,996.52
2019-02-10T00:24:03.060Z,996.53
2019-02-10T00:25:03.044Z,996.51
2019-02-10T00:26:03.032Z,996.53
2019-02-10T00:27:02.994Z,996.44
2019-02-10T00:28:02.979Z,996.39
2019-02-10T00:29:02.934Z,996.39
2019-02-10T00:30:02.968Z,996.29
2019-02-10T00:31:02.992Z,996.26
2019-02-10T00:32:02.908Z,996.23
2019-02-10T00:33:02.891Z,996.23
2019-02-10T00:34:02.906Z,996.18
2019-02-10T00:35:02.916Z,996.16
2019-02-10T00:36:02.859Z,996.11
2019-02-10T00:37:02.888Z,996.09
2019-02-10T00:38:02.886Z,996.03
2019-02-10T00:39:02.858Z,995.96
2019-02-10T00:40:02.855Z,996.03
2019-02-10T00:41:02.836Z,995.93
2019-02-10T00:42:02.793Z,995.93
2019-02-10T00:43:02.802Z,995.84
2019-02-10T00:44:02.807Z,995.85
2019-02-10T00:45:02.754Z,995.84
2019-02-10T00:46:02.779Z,995.83
2019-02-10T00:47:02.734Z,995.84
2019-02-10T00:48:02.726Z,995.81
2019-02-10T00:49:02.733Z,995.79
2019-02-10T00:50:02.704Z,995.80
2019-02-10T00:51:02.688Z,995.76
2019-02-10T00:52:02.680Z,995.79
2019-02-10T00:53:02.683Z,995.75
2019-02-10T00:54:02.690Z,995.73
2019-02-10T00:55:02.658Z,995.71
2019-02-10T00:56:02.659Z,995.68
2019-02-10T00:57:02.631Z,995.60
2019-02-10T00:58:02.654Z,995.62
2019-02-10T00:59:02.643Z,995.59
2019-02-10T01:00:02.598Z,995.59
2019-02-10T01:01:02.605Z,995.61
2019-02-10T01:02:02.609Z,995.59
2019-02-10T01:03:02.556Z,995.55
2019-02-10T01:04:02.585Z,995.53
2019-02-10T01:05:02.550Z,995.51
2019-02-10T01:06:02.528Z,995.47
2019-02-10T01:07:02.509Z,995.42
2019-02-10T01:08:02.551Z,995.39
2019-02-10T01:09:02.527Z,995.31
2019-02-10T01:10:02.486Z,995.29
2019-02-10T01:11:02.477Z,995.29
2019-02-10T01:12:02.479Z,995.19
2019-02-10T01:13:02.448Z,995.22
2019-02-10T01:14:02.488Z,995.14
2019-02-10T01:15:02.438Z,995.13
2019-02-10T01:16:02.451Z,995.12
2019-02-10T01:17:02.443Z,995.09
2019-02-10T01:18:02.424Z,995.10
2019-02-10T01:19:02.472Z,995.06
2019-02-10T01:20:02.453Z,995.09
2019-02-10T01:21:02.405Z,995.05
2019-02-10T01:22:02.384Z,994.96
2019-02-10T01:23:02.394Z,994.91
2019-02-10T01:24:02.421Z,994.93
2019-02-10T01:25:02.363Z,994.89
2019-02-10T01:26:02.334Z,994.90
2019-02-10T01:27:02.376Z,994.85
2019-02-10T01:28:02.295Z,994.82
2019-02-10T01:29:04.246Z,994.69
2019-02-10T01:30:02.270Z,994.71
2019-02-10T01:31:02.398Z,994.67
2019-02-10T01:32:02.242Z,994.68
2019-02-10T01:33:02.234Z,994.63
2019-02-10T01:34:02.230Z,994.59
2019-02-10T01:35:02.251Z,994.60
2019-02-10T01:36:02.196Z,994.50
2019-02-10T01:37:02.192Z,994.48
2019-02-10T01:38:02.196Z,994.49
2019-02-10T01:39:02.182Z,994.45
2019-02-10T01:40:02.184Z,994.45
2019-02-10T01:41:02.152Z,994.41
2019-02-10T01:42:02.144Z,994.41
2019-02-10T01:43:02.131Z,994.40
2019-02-10T01:44:02.122Z,994.34
2019-02-10T01:45:02.171Z,994.38
2019-02-10T01:46:02.093Z,994.33
2019-02-10T01:47:02.091Z,994.34
2019-02-10T01:48:02.084Z,994.28
2019-02-10T01:49:02.111Z,994.30
2019-02-10T01:50:02.077Z,994.34
2019-02-10T01:51:02.057Z,994.26
2019-02-10T01:52:02.024Z,994.23
2019-02-10T01:53:02.012Z,994.22
2019-02-10T01:54:02.009Z,994.16
2019-02-10T01:55:01.992Z,994.06
2019-02-10T01:56:01.988Z,994.03
2019-02-10T01:57:01.997Z,993.98
2019-02-10T01:58:01.977Z,993.93
2019-02-10T01:59:01.951Z,993.88
2019-02-10T02:00:01.962Z,993.81
2019-02-10T02:01:01.926Z,993.67
2019-02-10T02:02:01.916Z,993.64
2019-02-10T02:03:01.906Z,993.65
2019-02-10T02:04:01.896Z,993.62
2019-02-10T02:05:01.886Z,993.61
2019-02-10T02:06:01.967Z,993.55
2019-02-10T02:07:01.863Z,993.46
2019-02-10T02:08:01.851Z,993.44
2019-02-10T02:09:01.836Z,993.40
2019-02-10T02:10:01.844Z,993.40
2019-02-10T02:11:01.833Z,993.39
2019-02-10T02:12:01.804Z,993.37
2019-02-10T02:13:01.788Z,993.32
2019-02-10T02:14:01.808Z,993.24
2019-02-10T02:15:01.778Z,993.24
2019-02-10T02:16:01.786Z,993.18
2019-02-10T02:17:01.750Z,993.10
2019-02-10T02:18:01.790Z,993.09
2019-02-10T02:19:01.784Z,993.02
2019-02-10T02:20:01.742Z,993.01
2019-02-10T02:21:01.794Z,992.99
2019-02-10T02:22:01.798Z,992.94
2019-02-10T02:23:01.721Z,992.91
2019-02-10T02:24:01.702Z,992.93
2019-02-10T02:25:01.745Z,992.91
2019-02-10T02:26:01.743Z,992.93
2019-02-10T02:27:01.677Z,992.96
2019-02-10T02:28:01.681Z,992.92
2019-02-10T02:29:01.624Z,992.84
2019-02-10T02:30:01.628Z,992.86
2019-02-10T02:31:01.635Z,992.88
2019-02-10T02:32:01.586Z,992.84
2019-02-10T02:33:01.571Z,992.86
2019-02-10T02:34:01.561Z,992.84
2019-02-10T02:35:01.579Z,992.85
2019-02-10T02:36:01.570Z,992.86
2019-02-10T02:37:07.987Z,992.85
2019-02-10T02:38:01.541Z,992.81
2019-02-10T02:39:01.543Z,992.82
2019-02-10T02:40:01.542Z,992.79
2019-02-10T02:41:01.515Z,992.72
2019-02-10T02:42:01.493Z,992.78
2019-02-10T02:43:01.477Z,992.74
2019-02-10T02:44:01.464Z,992.70
2019-02-10T02:45:01.445Z,992.65
2019-02-10T02:46:01.466Z,992.64
2019-02-10T02:47:01.461Z,992.55
2019-02-10T02:48:01.428Z,992.51
2019-02-10T02:49:01.401Z,992.47
2019-02-10T02:50:01.385Z,992.41
2019-02-10T02:51:01.400Z,992.35
2019-02-10T02:52:01.371Z,992.30
2019-02-10T02:53:01.370Z,992.19
2019-02-10T02:54:01.352Z,992.22
2019-02-10T02:55:01.333Z,992.17
2019-02-10T02:56:01.350Z,992.11
2019-02-10T02:57:01.329Z,992.05
2019-02-10T02:58:01.323Z,992.03
2019-02-10T02:59:01.296Z,991.93
2019-02-10T03:00:01.288Z,991.92
2019-02-10T03:01:01.304Z,991.88
2019-02-10T03:02:01.268Z,991.85
2019-02-10T03:03:01.258Z,991.81
2019-02-10T03:04:01.277Z,991.72
2019-02-10T03:05:01.249Z,991.70
2019-02-10T03:06:01.249Z,991.69
2019-02-10T03:07:01.208Z,991.64
2019-02-10T03:08:01.191Z,991.60
2019-02-10T03:09:01.181Z,991.54
2019-02-10T03:10:01.179Z,991.52
2019-02-10T03:11:01.196Z,991.51
2019-02-10T03:12:01.152Z,991.47
2019-02-10T03:13:01.141Z,991.46
2019-02-10T03:14:01.129Z,991.49
2019-02-10T03:15:01.136Z,991.41
2019-02-10T03:16:01.130Z,991.44
2019-02-10T03:17:01.099Z,991.37
2019-02-10T03:18:01.117Z,991.44
2019-02-10T03:19:01.115Z,991.30
2019-02-10T03:20:01.098Z,991.32
2019-02-10T03:21:01.163Z,991.26
2019-02-10T03:22:01.071Z,991.23
2019-02-10T03:23:01.068Z,991.22
2019-02-10T03:24:01.053Z,991.14
2019-02-10T03:25:01.054Z,991.18
2019-02-10T03:26:01.090Z,991.07
2019-02-10T03:27:01.022Z,991.01
2019-02-10T03:28:00.988Z,990.97
2019-02-10T03:29:00.971Z,990.97
2019-02-10T03:30:00.981Z,990.92
2019-02-10T03:31:00.993Z,990.89
2019-02-10T03:32:00.933Z,990.86
2019-02-10T03:33:00.919Z,990.78
2019-02-10T03:34:00.913Z,990.69
2019-02-10T03:35:00.893Z,990.72
2019-02-10T03:36:00.926Z,990.69
2019-02-10T03:37:00.902Z,990.65
2019-02-10T03:38:00.869Z,990.61
2019-02-10T03:39:00.856Z,990.59
2019-02-10T03:40:00.849Z,990.55
2019-02-10T03:41:00.861Z,990.52
2019-02-10T03:42:00.906Z,990.52
2019-02-10T03:43:00.870Z,990.45
2019-02-10T03:44:00.802Z,990.42
2019-02-10T03:45:00.879Z,990.43
2019-02-10T03:46:00.842Z,990.35
2019-02-10T03:47:00.772Z,990.31
2019-02-10T03:48:00.760Z,990.28
2019-02-10T03:49:00.767Z,990.24
2019-02-10T03:50:00.788Z,990.20
2019-02-10T03:51:00.744Z,990.16
2019-02-10T03:52:00.749Z,990.12
2019-02-10T03:53:01.090Z,990.12
2019-02-10T03:54:00.699Z,990.02
2019-02-10T03:55:00.684Z,990.02
2019-02-10T03:56:00.670Z,989.94
2019-02-10T03:57:00.704Z,989.90
2019-02-10T03:58:00.653Z,989.89
2019-02-10T03:59:00.665Z,989.83
2019-02-10T04:00:00.621Z,989.75
2019-02-10T04:01:00.612Z,989.66
2019-02-10T04:02:00.633Z,989.63
2019-02-10T04:03:00.589Z,989.62
2019-02-10T04:04:00.594Z,989.50
2019-02-10T04:05:00.571Z,989.45
2019-02-10T04:06:00.573Z,989.38
2019-02-10T04:07:00.581Z,989.34
2019-02-10T04:08:00.534Z,989.41
2019-02-10T04:09:00.523Z,989.41
2019-02-10T04:10:00.556Z,989.38
2019-02-10T04:11:00.511Z,989.26
2019-02-10T04:12:00.528Z,989.19
2019-02-10T04:13:00.506Z,989.18
2019-02-10T04:14:00.586Z,989.10
2019-02-10T04:15:00.454Z,989.18
2019-02-10T04:16:00.461Z,989.14
2019-02-10T04:17:00.477Z,989.18
2019-02-10T04:18:00.474Z,989.09
2019-02-10T04:19:00.459Z,989.15
2019-02-10T04:20:00.435Z,989.03
2019-02-10T04:21:00.437Z,988.96
2019-02-10T04:22:00.444Z,988.99
2019-02-10T04:23:00.406Z,988.97
2019-02-10T04:24:00.424Z,988.95
2019-02-10T04:25:00.412Z,988.82
2019-02-10T04:26:00.373Z,988.77
2019-02-10T04:27:00.570Z,988.76
2019-02-10T04:28:00.324Z,988.70
2019-02-10T04:29:00.367Z,988.62
2019-02-10T04:30:00.320Z,988.63
2019-02-10T04:31:00.291Z,988.56
2019-02-10T04:32:00.303Z,988.59
2019-02-10T04:33:00.299Z,988.58
2019-02-10T04:34:00.465Z,988.51
2019-02-10T04:35:00.294Z,988.44
2019-02-10T04:36:00.239Z,988.39
2019-02-10T04:37:00.266Z,988.45
2019-02-10T04:38:00.225Z,988.41
2019-02-10T04:39:00.205Z,988.22
2019-02-10T04:40:00.276Z,988.27
2019-02-10T04:41:00.169Z,988.27
2019-02-10T04:42:00.194Z,988.25
2019-02-10T04:43:00.167Z,988.20
2019-02-10T04:44:00.143Z,988.20
2019-02-10T04:45:00.366Z,988.14
2019-02-10T04:46:00.189Z,988.12
2019-02-10T04:47:00.140Z,988.14
2019-02-10T04:48:00.110Z,988.10
2019-02-10T04:49:00.097Z,988.08
2019-02-10T04:50:00.344Z,988.09
2019-02-10T04:51:00.068Z,987.99
2019-02-10T04:52:00.113Z,987.97
2019-02-10T04:53:00.048Z,987.94
2019-02-10T04:54:00.057Z,987.87
2019-02-10T04:55:00.036Z,987.80
2019-02-10T04:56:00.035Z,987.74
2019-02-10T04:57:00.104Z,987.79
2019-02-10T04:58:00.002Z,987.76
2019-02-10T04:58:59.986Z,987.71
2019-02-10T04:59:59.965Z,987.69
2019-02-10T05:00:59.972Z,987.58
2019-02-10T05:01:59.995Z,987.63
2019-02-10T05:02:59.940Z,987.62
2019-02-10T05:03:59.955Z,987.55
2019-02-10T05:04:59.916Z,987.52
2019-02-10T05:05:59.918Z,987.52
2019-02-10T05:06:59.908Z,987.42
2019-02-10T05:07:59.890Z,987.42
2019-02-10T05:08:59.900Z,987.41
2019-02-10T05:09:59.882Z,987.40
2019-02-10T05:10:59.866Z,987.36
2019-02-10T05:11:59.891Z,987.28
2019-02-10T05:12:59.916Z,987.24
2019-02-10T05:13:59.823Z,987.32
2019-02-10T05:14:59.822Z,987.29
2019-02-10T05:15:59.809Z,987.23
2019-02-10T05:17:02.493Z,987.26
2019-02-10T05:17:59.807Z,987.22
2019-02-10T05:18:59.811Z,987.14
2019-02-10T05:19:59.786Z,987.07
2019-02-10T05:20:59.771Z,987.12
2019-02-10T05:21:59.768Z,987.13
2019-02-10T05:22:59.821Z,987.08
2019-02-10T05:24:03.527Z,987.00
2019-02-10T05:24:59.723Z,986.91
2019-02-10T05:25:59.719Z,986.94
2019-02-10T05:26:59.721Z,986.93
2019-02-10T05:27:59.700Z,986.95
2019-02-10T05:28:59.653Z,986.93
2019-02-10T05:29:59.882Z,986.81
2019-02-10T05:30:59.820Z,986.72
2019-02-10T05:31:59.619Z,986.80
2019-02-10T05:32:59.642Z,986.74
2019-02-10T05:33:59.604Z,986.81
2019-02-10T05:34:59.588Z,986.65
2019-02-10T05:35:59.582Z,986.71
2019-02-10T05:36:59.573Z,986.70
2019-02-10T05:38:04.307Z,986.64
2019-02-10T05:38:59.542Z,986.67
2019-02-10T05:39:59.549Z,986.69
2019-02-10T05:40:59.526Z,986.64
2019-02-10T05:41:59.521Z,986.58
2019-02-10T05:42:59.544Z,986.59
2019-02-10T05:43:59.489Z,986.56
2019-02-10T05:44:59.481Z,986.51
2019-02-10T05:45:59.468Z,986.45
2019-02-10T05:46:59.460Z,986.33
2019-02-10T05:47:59.485Z,986.42
2019-02-10T05:48:59.522Z,986.28
2019-02-10T05:49:59.444Z,986.33
2019-02-10T05:50:59.414Z,986.21
2019-02-10T05:51:59.401Z,986.10
2019-02-10T05:52:59.414Z,986.14
2019-02-10T05:53:59.387Z,986.17
2019-02-10T05:54:59.394Z,986.11
2019-02-10T05:55:59.368Z,986.05
2019-02-10T05:56:59.346Z,986.03
2019-02-10T05:57:59.393Z,985.97
2019-02-10T05:58:59.331Z,985.81
2019-02-10T05:59:59.342Z,985.92
2019-02-10T06:00:59.316Z,985.81
2019-02-10T06:01:59.303Z,985.73
2019-02-10T06:02:59.323Z,985.75
2019-02-10T06:03:59.274Z,985.79
2019-02-10T06:04:59.263Z,985.75
2019-02-10T06:05:59.266Z,985.65
2019-02-10T06:06:59.321Z,985.80
2019-02-10T06:07:59.289Z,985.64
2019-02-10T06:08:59.244Z,985.67
2019-02-10T06:09:59.205Z,985.55
2019-02-10T06:10:59.196Z,985.60
2019-02-10T06:11:59.191Z,985.53
2019-02-10T06:12:59.215Z,985.54
2019-02-10T06:13:59.187Z,985.47
2019-02-10T06:14:59.161Z,985.50
2019-02-10T06:15:59.148Z,985.47
2019-02-10T06:16:59.124Z,985.52
2019-02-10T06:17:59.205Z,985.35
2019-02-10T06:18:59.144Z,985.38
2019-02-10T06:19:59.182Z,985.37
2019-02-10T06:20:59.162Z,985.34
2019-02-10T06:21:59.128Z,985.29
2019-02-10T06:22:59.159Z,985.20
2019-02-10T06:23:59.084Z,985.20
2019-02-10T06:24:59.096Z,985.24
2019-02-10T06:25:59.060Z,985.33
2019-02-10T06:26:59.068Z,985.18
2019-02-10T06:27:59.041Z,985.21
2019-02-10T06:28:59.016Z,985.18
2019-02-10T06:29:59.006Z,985.04
2019-02-10T06:30:58.993Z,985.01
2019-02-10T06:31:59.063Z,985.03
2019-02-10T06:32:58.959Z,985.05
2019-02-10T06:33:58.968Z,985.06
2019-02-10T06:34:58.950Z,985.03
2019-02-10T06:35:58.931Z,984.99
2019-02-10T06:36:58.914Z,984.99
2019-02-10T06:37:58.899Z,984.90
2019-02-10T06:38:58.989Z,984.86
2019-02-10T06:39:58.907Z,984.92
2019-02-10T06:40:58.858Z,984.79
2019-02-10T06:41:58.875Z,984.80
2019-02-10T06:42:58.875Z,984.78
2019-02-10T06:43:58.852Z,984.72
2019-02-10T06:44:58.823Z,984.76
2019-02-10T06:45:58.808Z,984.75
2019-02-10T06:46:58.835Z,984.62
2019-02-10T06:47:58.786Z,984.71
2019-02-10T06:48:58.810Z,984.57
2019-02-10T06:49:58.776Z,984.48
2019-02-10T06:50:58.848Z,984.50
2019-02-10T06:51:58.745Z,984.51
2019-02-10T06:52:58.734Z,984.49
2019-02-10T06:53:58.753Z,984.49
2019-02-10T06:54:58.780Z,984.43
2019-02-10T06:55:58.714Z,984.39
2019-02-10T06:56:58.704Z,984.44
2019-02-10T06:57:58.672Z,984.45
2019-02-10T06:58:58.782Z,984.32
2019-02-10T06:59:58.665Z,984.45
2019-02-10T07:00:58.664Z,984.37
2019-02-10T07:01:58.664Z,984.43
2019-02-10T07:02:58.626Z,984.35
2019-02-10T07:03:58.639Z,984.38
2019-02-10T07:04:58.622Z,984.26
2019-02-10T07:05:58.651Z,984.30
2019-02-10T07:06:58.597Z,984.38
2019-02-10T07:07:58.574Z,984.24
2019-02-10T07:08:58.584Z,984.27
2019-02-10T07:09:58.560Z,984.23
2019-02-10T07:10:58.623Z,984.21
2019-02-10T07:11:58.528Z,984.21
2019-02-10T07:12:58.511Z,984.20
2019-02-10T07:13:58.542Z,984.18
2019-02-10T07:14:58.571Z,984.25
2019-02-10T07:15:58.490Z,984.24
2019-02-10T07:16:58.481Z,984.19
2019-02-10T07:17:58.511Z,984.22
2019-02-10T07:18:58.545Z,984.18
2019-02-10T07:19:58.476Z,984.13
2019-02-10T07:20:58.468Z,984.23
2019-02-10T07:21:58.450Z,984.11
2019-02-10T07:22:58.433Z,984.17
2019-02-10T07:23:58.649Z,984.11
2019-02-10T07:24:58.422Z,984.06
2019-02-10T07:25:58.405Z,984.10
2019-02-10T07:26:58.408Z,984.11
2019-02-10T07:27:58.370Z,984.11
2019-02-10T07:28:58.380Z,984.03
2019-02-10T07:29:58.337Z,984.08
2019-02-10T07:30:58.401Z,984.02
2019-02-10T07:31:58.309Z,984.00
2019-02-10T07:32:58.312Z,984.04
2019-02-10T07:33:58.709Z,984.05
2019-02-10T07:34:58.283Z,984.02
2019-02-10T07:35:58.298Z,984.03
2019-02-10T07:36:58.265Z,983.99
2019-02-10T07:37:58.243Z,983.98
2019-02-10T07:38:58.337Z,983.86
2019-02-10T07:39:58.227Z,983.99
2019-02-10T07:40:58.222Z,983.92
2019-02-10T07:41:58.275Z,983.97
2019-02-10T07:42:58.186Z,984.02
2019-02-10T07:43:58.202Z,983.96
2019-02-10T07:44:58.175Z,983.90
2019-02-10T07:45:58.152Z,983.97
2019-02-10T07:46:58.157Z,983.90
2019-02-10T07:47:58.139Z,983.89
2019-02-10T07:48:58.306Z,983.72
2019-02-10T07:49:58.110Z,983.74
2019-02-10T07:50:58.120Z,983.75
2019-02-10T07:51:58.093Z,983.72
2019-02-10T07:52:58.087Z,983.69
2019-02-10T07:53:58.100Z,983.66
2019-02-10T07:54:58.076Z,983.71
2019-02-10T07:55:58.060Z,983.69
2019-02-10T07:56:58.094Z,983.60
2019-02-10T07:57:58.048Z,983.70
2019-02-10T07:58:58.041Z,983.60
2019-02-10T07:59:57.998Z,983.74
2019-02-10T08:00:58.039Z,983.70
2019-02-10T08:01:57.978Z,983.72
2019-02-10T08:02:57.970Z,983.74
2019-02-10T08:03:58.002Z,983.68
2019-02-10T08:04:57.967Z,983.70
2019-02-10T08:05:59.747Z,983.65
2019-02-10T08:06:57.921Z,983.66
2019-02-10T08:07:57.929Z,983.64
2019-02-10T08:08:57.903Z,983.62
2019-02-10T08:09:57.901Z,983.65
2019-02-10T08:10:57.966Z,983.69
2019-02-10T08:11:57.886Z,983.54
2019-02-10T08:12:57.868Z,983.56
2019-02-10T08:13:57.846Z,983.54
2019-02-10T08:14:57.838Z,983.50
2019-02-10T08:15:57.834Z,983.45
2019-02-10T08:16:57.827Z,983.53
2019-02-10T08:17:57.866Z,983.51
2019-02-10T08:18:57.857Z,983.45
2019-02-10T08:19:57.920Z,983.38
2019-02-10T08:20:57.813Z,983.42
2019-02-10T08:21:57.786Z,983.34
2019-02-10T08:22:57.792Z,983.32
2019-02-10T08:23:57.779Z,983.26
2019-02-10T08:24:57.741Z,983.36
2019-02-10T08:25:57.794Z,983.27
2019-02-10T08:26:57.764Z,983.26
2019-02-10T08:27:57.704Z,983.17
2019-02-10T08:28:57.703Z,983.21
2019-02-10T08:29:57.710Z,983.05
2019-02-10T08:30:57.671Z,983.09
2019-02-10T08:31:57.676Z,982.97
2019-02-10T08:32:57.656Z,982.98
2019-02-10T08:33:57.666Z,983.01
2019-02-10T08:34:57.691Z,983.02
2019-02-10T08:35:57.716Z,982.99
2019-02-10T08:36:57.681Z,982.91
2019-02-10T08:37:57.583Z,982.93
2019-02-10T08:38:57.581Z,982.94
2019-02-10T08:39:57.611Z,983.01
2019-02-10T08:40:57.570Z,982.94
2019-02-10T08:41:57.549Z,982.95
2019-02-10T08:42:57.654Z,982.90
2019-02-10T08:43:57.549Z,982.94
2019-02-10T08:44:57.542Z,982.94
2019-02-10T08:45:57.521Z,982.85
2019-02-10T08:46:57.488Z,982.97
2019-02-10T08:47:57.499Z,982.93
2019-02-10T08:48:57.458Z,982.97
2019-02-10T08:49:57.504Z,982.90
2019-02-10T08:50:57.462Z,982.94
2019-02-10T08:51:57.456Z,982.94
2019-02-10T08:52:57.425Z,982.91
2019-02-10T08:53:57.411Z,982.82
2019-02-10T08:54:57.442Z,982.85
2019-02-10T08:55:57.441Z,982.87
2019-02-10T08:56:57.391Z,982.82
2019-02-10T08:57:57.397Z,982.78
2019-02-10T08:58:57.383Z,982.89
2019-02-10T08:59:57.397Z,982.80
2019-02-10T09:00:57.340Z,982.68
2019-02-10T09:01:57.322Z,982.72
2019-02-10T09:02:57.312Z,982.80
2019-02-10T09:03:57.340Z,982.78
2019-02-10T09:04:57.355Z,982.72
2019-02-10T09:05:57.296Z,982.71
2019-02-10T09:06:57.339Z,982.65
2019-02-10T09:07:57.267Z,982.55
2019-02-10T09:09:02.431Z,982.62
2019-02-10T09:09:57.309Z,982.61
2019-02-10T09:10:57.229Z,982.50
2019-02-10T09:11:57.232Z,982.62
2019-02-10T09:12:57.222Z,982.48
2019-02-10T09:13:57.192Z,982.46
2019-02-10T09:14:57.221Z,982.42
2019-02-10T09:15:57.193Z,982.45
2019-02-10T09:16:57.184Z,982.39
2019-02-10T09:17:57.195Z,982.36
2019-02-10T09:18:57.284Z,982.32
2019-02-10T09:19:57.251Z,982.38
2019-02-10T09:20:57.189Z,982.29
2019-02-10T09:21:57.158Z,982.34
2019-02-10T09:22:57.130Z,982.20
2019-02-10T09:23:57.128Z,982.31
2019-02-10T09:24:57.112Z,982.15
2019-02-10T09:25:57.111Z,982.21
2019-02-10T09:26:57.115Z,982.21
2019-02-10T09:27:57.049Z,982.20
2019-02-10T09:28:57.059Z,982.27
2019-02-10T09:29:57.068Z,982.30
2019-02-10T09:30:57.037Z,982.21
2019-02-10T09:31:57.001Z,982.18
2019-02-10T09:32:57.036Z,982.13
2019-02-10T09:33:56.991Z,982.17
2019-02-10T09:34:56.996Z,982.08
2019-02-10T09:35:56.958Z,982.08
2019-02-10T09:36:56.964Z,982.08
2019-02-10T09:37:56.949Z,982.08
2019-02-10T09:38:56.932Z,982.03
2019-02-10T09:39:56.954Z,981.92
2019-02-10T09:40:56.963Z,981.97
2019-02-10T09:41:56.903Z,981.98
2019-02-10T09:42:56.896Z,981.98
2019-02-10T09:43:56.883Z,981.95
2019-02-10T09:44:56.934Z,981.89
2019-02-10T09:45:56.866Z,981.86
2019-02-10T09:46:56.845Z,981.85
2019-02-10T09:47:56.839Z,981.88
2019-02-10T09:48:56.886Z,981.78
2019-02-10T09:49:56.824Z,981.89
2019-02-10T09:50:56.825Z,981.85
2019-02-10T09:51:56.903Z,981.79
2019-02-10T09:52:56.769Z,981.82
2019-02-10T09:53:56.782Z,981.80
2019-02-10T09:54:56.793Z,981.82
2019-02-10T09:55:56.781Z,981.75
2019-02-10T09:56:56.734Z,981.78
2019-02-10T09:57:56.725Z,981.76
2019-02-10T09:58:56.703Z,981.75
2019-02-10T09:59:56.696Z,981.75
2019-02-10T10:00:56.720Z,981.74
2019-02-10T10:01:56.674Z,981.74
2019-02-10T10:02:56.666Z,981.68
2019-02-10T10:03:56.675Z,981.67
2019-02-10T10:04:56.655Z,981.67
2019-02-10T10:05:56.662Z,981.66
2019-02-10T10:06:58.087Z,981.59
2019-02-10T10:07:56.618Z,981.64
2019-02-10T10:08:56.609Z,981.54
2019-02-10T10:09:56.656Z,981.56
2019-02-10T10:10:56.613Z,981.53
2019-02-10T10:11:56.570Z,981.51
2019-02-10T10:12:56.552Z,981.50
2019-02-10T10:13:56.550Z,981.47
2019-02-10T10:14:56.557Z,981.45
2019-02-10T10:15:56.580Z,981.51
2019-02-10T10:16:56.585Z,981.44
2019-02-10T10:17:56.534Z,981.39
2019-02-10T10:18:56.730Z,981.42
2019-02-10T10:19:56.726Z,981.42
2019-02-10T10:20:56.654Z,981.36
2019-02-10T10:21:56.493Z,981.34
2019-02-10T10:22:56.474Z,981.34
2019-02-10T10:23:56.571Z,981.34
2019-02-10T10:24:56.458Z,981.32
2019-02-10T10:25:56.520Z,981.24
2019-02-10T10:26:56.455Z,981.29
2019-02-10T10:27:56.594Z,981.24
2019-02-10T10:28:56.385Z,981.30
2019-02-10T10:29:56.382Z,981.28
2019-02-10T10:30:56.390Z,981.28
2019-02-10T10:31:56.351Z,981.27
2019-02-10T10:32:56.395Z,981.24
2019-02-10T10:33:56.402Z,981.25
2019-02-10T10:34:56.329Z,981.25
2019-02-10T10:35:56.338Z,981.19
2019-02-10T10:36:56.295Z,981.22
2019-02-10T10:37:56.285Z,981.18
2019-02-10T10:38:56.290Z,981.25
2019-02-10T10:39:56.293Z,981.20
2019-02-10T10:40:56.289Z,981.21
2019-02-10T10:41:56.238Z,981.33
2019-02-10T10:42:56.379Z,981.25
2019-02-10T10:43:56.219Z,981.28
2019-02-10T10:44:56.202Z,981.35
2019-02-10T10:45:56.317Z,981.34
2019-02-10T10:46:56.187Z,981.38
2019-02-10T10:47:55.190Z,981.34
2019-02-10T10:48:56.162Z,981.32
2019-02-10T10:49:56.157Z,981.45
2019-02-10T10:50:55.139Z,981.47
2019-02-10T10:51:56.173Z,981.34
2019-02-10T10:52:56.110Z,981.33
2019-02-10T10:53:56.122Z,981.31
2019-02-10T10:54:56.114Z,981.42
2019-02-10T10:55:56.094Z,981.34
2019-02-10T10:56:56.103Z,981.33
2019-02-10T10:57:56.066Z,981.36
2019-02-10T10:58:56.071Z,981.36
2019-02-10T10:59:56.057Z,981.35
2019-02-10T11:00:56.039Z,981.31
2019-02-10T11:01:56.054Z,981.32
2019-02-10T11:02:56.022Z,981.36
2019-02-10T11:03:56.104Z,981.28
2019-02-10T11:04:56.001Z,981.30
2019-02-10T11:05:56.028Z,981.30
2019-02-10T11:06:55.986Z,981.31
2019-02-10T11:07:56.031Z,981.21
2019-02-10T11:08:55.950Z,981.30
2019-02-10T11:09:55.929Z,981.28
2019-02-10T11:10:55.923Z,981.18
2019-02-10T11:11:55.957Z,981.20
2019-02-10T11:12:55.955Z,981.21
2019-02-10T11:13:55.941Z,981.09
2019-02-10T11:14:55.933Z,981.07
2019-02-10T11:15:57.220Z,981.09
2019-02-10T11:16:55.872Z,981.11
2019-02-10T11:17:56.078Z,981.10
2019-02-10T11:18:55.872Z,981.09
2019-02-10T11:19:55.881Z,981.05
2019-02-10T11:20:55.853Z,981.01
2019-02-10T11:21:55.987Z,980.96
2019-02-10T11:22:55.898Z,980.91
2019-02-10T11:23:55.818Z,980.89
2019-02-10T11:24:55.768Z,980.84
2019-02-10T11:25:55.822Z,980.75
2019-02-10T11:26:55.794Z,980.74
2019-02-10T11:27:55.793Z,980.72
2019-02-10T11:28:55.726Z,980.74
2019-02-10T11:29:55.710Z,980.68
2019-02-10T11:30:55.715Z,980.75
2019-02-10T11:31:55.691Z,980.76
2019-02-10T11:32:55.708Z,980.68
2019-02-10T11:33:55.675Z,980.73
2019-02-10T11:34:56.416Z,980.78
2019-02-10T11:35:55.646Z,980.84
2019-02-10T11:36:55.647Z,980.92
2019-02-10T11:37:55.653Z,980.89
2019-02-10T11:38:55.626Z,980.86
2019-02-10T11:39:55.607Z,980.93
2019-02-10T11:40:55.612Z,980.93
2019-02-10T11:41:55.584Z,980.87
2019-02-10T11:42:55.596Z,980.97
2019-02-10T11:43:55.563Z,980.92
2019-02-10T11:44:55.580Z,980.87
2019-02-10T11:45:55.544Z,980.83
2019-02-10T11:46:55.552Z,980.81
2019-02-10T11:47:55.538Z,980.87
2019-02-10T11:48:55.509Z,980.83
2019-02-10T11:49:55.524Z,980.84
2019-02-10T11:50:55.484Z,980.78
2019-02-10T11:51:55.476Z,980.72
2019-02-10T11:52:55.496Z,980.69
2019-02-10T11:53:55.489Z,980.72
2019-02-10T11:54:55.447Z,980.69
2019-02-10T11:55:55.447Z,980.67
2019-02-10T11:56:55.421Z,980.66
2019-02-10T11:57:55.431Z,980.69
2019-02-10T11:58:55.405Z,980.67
2019-02-10T11:59:55.399Z,980.65
2019-02-10T12:00:55.377Z,980.72
2019-02-10T12:01:55.370Z,980.68
2019-02-10T12:02:55.380Z,980.72
2019-02-10T12:03:55.337Z,980.75
2019-02-10T12:04:55.328Z,980.78
2019-02-10T12:05:55.378Z,980.78
2019-02-10T12:06:55.305Z,980.75
2019-02-10T12:07:55.339Z,980.78
2019-02-10T12:08:55.281Z,980.78
2019-02-10T12:09:55.284Z,980.87
2019-02-10T12:10:55.282Z,980.77
2019-02-10T12:11:55.255Z,980.77
2019-02-10T12:12:55.276Z,980.87
2019-02-10T12:13:55.228Z,980.88
2019-02-10T12:14:55.260Z,980.88
2019-02-10T12:15:55.223Z,980.98
2019-02-10T12:16:55.263Z,980.91
2019-02-10T12:17:55.287Z,981.03
2019-02-10T12:18:55.254Z,980.88
2019-02-10T12:19:55.239Z,980.92
2019-02-10T12:20:55.198Z,980.85
2019-02-10T12:21:55.194Z,980.87
2019-02-10T12:22:55.245Z,980.86
2019-02-10T12:23:55.173Z,980.88
2019-02-10T12:24:55.190Z,980.82
2019-02-10T12:25:55.142Z,980.86
2019-02-10T12:26:55.141Z,980.93
2019-02-10T12:27:55.125Z,980.96